KCKV/CKV METAR and TAF weather

Enter ICAO airport designator
Station Type Date Time Source
KCKV METAR 2019/08/19 07:52 UTC NOAA

KCKV 190752Z AUTO 32005KT 10SM CLR 23/21 A2998 RMK AO2 SLP144 T02280211


Station Type Date Time Source
KCKV Decoded METAR 2019/08/19 07:52 UTC NOAA

Station name not available
Aug 19, 2019 - 03:52 AM EDT / 2019.08.19 0752 UTC
Wind: from the NW (320 degrees) at 6 MPH (5 KT):0
Visibility: 10 mile(s):0
Sky conditions: clear
Temperature: 73.0 F (22.8 C)
Dew Point: 70.0 F (21.1 C)
Relative Humidity: 90%
Pressure (altimeter): 29.98 in. Hg (1015 hPa)
ob: KCKV 190752Z AUTO 32005KT 10SM CLR 23/21 A2998 RMK AO2 SLP144 T02280211
cycle: 8

Station Type Date Time Source
KCKV TAF 2019/08/19 06:22 UTC NOAA

TAF KCKV 190520Z 1906/2006 17004KT P6SM SKC
TEMPO 1909/1913 00000KT 4SM BR SKC
FM191300 19005KT P6SM SCT250

Example: see airport list